createdAt,value
2023-04-24T00:01:09.116Z,7.77
2023-04-24T00:04:11.412Z,7.69
2023-04-24T00:07:13.582Z,7.62
2023-04-24T00:10:15.262Z,7.56
2023-04-24T00:13:17.074Z,7.50
2023-04-24T00:16:18.800Z,7.43
2023-04-24T00:19:20.515Z,7.34
2023-04-24T00:22:22.213Z,7.27
2023-04-24T00:25:23.844Z,7.25
2023-04-24T00:28:25.362Z,7.23
2023-04-24T00:31:27.252Z,7.23
2023-04-24T00:34:28.977Z,7.20
2023-04-24T00:37:30.675Z,7.17
2023-04-24T00:40:32.262Z,7.10
2023-04-24T00:43:34.022Z,7.05
2023-04-24T00:46:36.999Z,7.03
2023-04-24T00:49:38.771Z,7.01
2023-04-24T00:52:40.398Z,7.07
2023-04-24T00:55:41.953Z,7.15
2023-04-24T00:58:44.206Z,7.20
2023-04-24T01:01:46.358Z,7.22
2023-04-24T01:04:48.013Z,7.22
2023-04-24T01:07:49.561Z,7.29
2023-04-24T01:10:52.998Z,7.33
2023-04-24T01:13:54.638Z,7.35
2023-04-24T01:16:56.197Z,7.40
2023-04-24T01:19:57.848Z,7.46
2023-04-24T01:22:59.610Z,7.50
2023-04-24T01:26:01.236Z,7.49
2023-04-24T01:29:02.943Z,7.48
2023-04-24T01:32:05.545Z,7.42
2023-04-24T01:35:08.353Z,7.31
2023-04-24T01:38:10.041Z,7.15
2023-04-24T01:41:11.736Z,7.08
2023-04-24T01:44:13.350Z,7.04
2023-04-24T01:47:15.020Z,7.03
2023-04-24T01:50:16.769Z,7.06
2023-04-24T01:53:18.411Z,7.07
2023-04-24T01:56:21.392Z,7.02
2023-04-24T01:59:24.700Z,6.98
2023-04-24T02:02:26.799Z,6.94
2023-04-24T02:05:29.202Z,6.89
2023-04-24T02:08:30.889Z,6.81
2023-04-24T02:11:32.365Z,6.69
2023-04-24T02:14:34.124Z,6.55
2023-04-24T02:17:35.884Z,6.41
2023-04-24T02:20:37.474Z,6.29
2023-04-24T02:23:38.985Z,6.16
2023-04-24T02:26:40.568Z,6.04
2023-04-24T02:29:42.850Z,5.91
2023-04-24T02:32:44.941Z,5.80
2023-04-24T02:35:46.692Z,5.61
2023-04-24T02:38:48.208Z,5.50
2023-04-24T02:41:49.880Z,5.40
2023-04-24T02:44:51.401Z,5.28
2023-04-24T02:47:53.265Z,5.14
2023-04-24T02:50:55.362Z,4.98
2023-04-24T02:53:57.069Z,4.90
2023-04-24T02:56:58.750Z,4.90
2023-04-24T03:00:00.296Z,4.85
2023-04-24T03:03:02.568Z,4.81
2023-04-24T03:06:04.445Z,4.77
2023-04-24T03:09:05.956Z,4.75
2023-04-24T03:12:07.734Z,4.72
2023-04-24T03:15:09.733Z,4.68
2023-04-24T03:18:11.457Z,4.63
2023-04-24T03:21:13.217Z,4.58
2023-04-24T03:24:14.772Z,4.53
2023-04-24T03:27:16.393Z,4.47
2023-04-24T03:30:17.917Z,4.43
2023-04-24T03:33:19.543Z,4.38
2023-04-24T03:36:21.131Z,4.33
2023-04-24T03:39:22.840Z,4.29
2023-04-24T03:42:24.513Z,4.28
2023-04-24T03:45:26.080Z,4.27
2023-04-24T03:48:27.875Z,4.27
2023-04-24T03:51:29.484Z,4.29
2023-04-24T03:54:31.132Z,4.28
2023-04-24T03:57:33.178Z,4.31
2023-04-24T04:00:34.734Z,4.34
2023-04-24T04:03:36.542Z,4.36
2023-04-24T04:06:38.758Z,4.27
2023-04-24T04:09:40.403Z,4.13
2023-04-24T04:12:42.149Z,4.08
2023-04-24T04:15:43.694Z,4.10
2023-04-24T04:18:45.877Z,4.18
2023-04-24T04:21:47.535Z,4.35
2023-04-24T04:24:49.081Z,4.52
2023-04-24T04:27:50.792Z,4.71
2023-04-24T04:30:52.481Z,4.86
2023-04-24T04:33:54.197Z,5.01
2023-04-24T04:36:55.915Z,5.14
2023-04-24T04:39:59.096Z,5.27
2023-04-24T04:43:00.713Z,5.39
2023-04-24T04:46:02.376Z,5.50
2023-04-24T04:49:04.137Z,5.59
2023-04-24T04:52:06.066Z,5.70
2023-04-24T04:55:08.194Z,5.81
2023-04-24T04:58:09.852Z,5.97
2023-04-24T05:01:11.734Z,6.17
2023-04-24T05:04:13.631Z,6.39
2023-04-24T05:07:15.581Z,6.62
2023-04-24T05:10:17.262Z,6.94
2023-04-24T05:13:22.854Z,7.66
2023-04-24T05:16:30.388Z,8.49
2023-04-24T05:19:32.085Z,9.22
2023-04-24T05:22:33.932Z,9.92
2023-04-24T05:25:35.619Z,10.56
2023-04-24T05:28:37.323Z,11.24
2023-04-24T05:31:39.004Z,11.85
2023-04-24T05:34:40.737Z,12.43
2023-04-24T05:37:42.388Z,12.95
2023-04-24T05:40:44.411Z,13.44
2023-04-24T05:43:46.176Z,13.87
2023-04-24T05:46:47.973Z,14.34
2023-04-24T05:49:49.681Z,14.82
2023-04-24T05:52:51.271Z,15.30
2023-04-24T05:55:53.068Z,15.72
2023-04-24T05:58:54.708Z,16.11
2023-04-24T06:01:56.463Z,16.63
2023-04-24T06:04:58.500Z,17.09
2023-04-24T06:08:00.484Z,17.51
2023-04-24T06:11:04.357Z,17.93
2023-04-24T06:14:06.305Z,18.32
2023-04-24T06:17:07.920Z,18.65
2023-04-24T06:20:09.900Z,18.85
2023-04-24T06:23:11.572Z,18.59
2023-04-24T06:26:13.255Z,18.34
2023-04-24T06:29:14.909Z,18.11
2023-04-24T06:32:16.683Z,18.37
2023-04-24T06:35:18.837Z,18.72
2023-04-24T06:38:20.606Z,18.64
2023-04-24T06:41:22.317Z,18.38
2023-04-24T06:44:23.953Z,18.44
2023-04-24T06:47:25.608Z,19.06
2023-04-24T06:50:27.347Z,19.57
2023-04-24T06:53:29.064Z,19.90
2023-04-24T06:56:31.004Z,19.70
2023-04-24T06:59:32.595Z,19.85
2023-04-24T07:02:34.292Z,19.82
2023-04-24T07:05:36.467Z,20.21
2023-04-24T07:08:38.585Z,20.52
2023-04-24T07:11:40.726Z,20.79
2023-04-24T07:14:42.413Z,21.31
2023-04-24T07:17:44.195Z,21.38
2023-04-24T07:20:46.031Z,21.38
2023-04-24T07:23:47.652Z,21.32
2023-04-24T07:26:49.461Z,21.42
2023-04-24T07:29:51.066Z,21.57
2023-04-24T07:32:52.785Z,21.66
2023-04-24T07:35:54.426Z,21.55
2023-04-24T07:38:56.525Z,21.50
2023-04-24T07:41:58.460Z,21.49
2023-04-24T07:45:00.117Z,21.42
2023-04-24T07:48:02.366Z,21.47
2023-04-24T07:51:04.153Z,21.47
2023-04-24T07:54:06.395Z,21.34
2023-04-24T07:57:08.214Z,21.53
2023-04-24T08:00:10.355Z,21.64
2023-04-24T08:03:12.351Z,21.90
2023-04-24T08:06:14.185Z,22.11
2023-04-24T08:09:15.788Z,21.96
2023-04-24T08:12:17.510Z,22.09
2023-04-24T08:15:19.422Z,22.28
2023-04-24T08:18:21.088Z,22.54
2023-04-24T08:21:22.759Z,22.69
2023-04-24T08:24:24.416Z,22.69
2023-04-24T08:27:27.316Z,22.84
2023-04-24T08:30:29.389Z,22.86
2023-04-24T08:33:31.934Z,22.96
2023-04-24T08:36:45.825Z,23.11
2023-04-24T08:39:49.774Z,23.33
2023-04-24T08:42:54.862Z,23.45
2023-04-24T08:45:58.154Z,23.48
2023-04-24T08:49:00.595Z,23.63
2023-04-24T08:52:02.952Z,23.78
2023-04-24T08:55:07.007Z,24.02
2023-04-24T08:58:09.332Z,24.19
2023-04-24T09:01:11.339Z,24.20
2023-04-24T09:04:14.033Z,24.31
2023-04-24T09:07:17.636Z,24.22
2023-04-24T09:10:19.533Z,24.20
2023-04-24T09:13:21.517Z,24.38
2023-04-24T09:16:23.465Z,24.73
2023-04-24T09:19:25.105Z,24.78
2023-04-24T09:22:30.958Z,25.10
2023-04-24T09:25:34.025Z,25.22
2023-04-24T09:28:41.187Z,25.10
2023-04-24T09:31:42.917Z,25.05
2023-04-24T09:34:48.270Z,25.45
2023-04-24T09:37:49.939Z,25.44
2023-04-24T09:40:51.781Z,25.31
2023-04-24T09:43:55.282Z,24.85
2023-04-24T09:46:59.005Z,24.74
2023-04-24T09:50:00.693Z,24.72
2023-04-24T09:53:04.553Z,24.46
2023-04-24T09:56:10.414Z,24.68
2023-04-24T09:59:13.799Z,24.61
2023-04-24T10:02:19.772Z,24.83
2023-04-24T10:05:25.002Z,24.97
2023-04-24T10:08:26.908Z,24.83
2023-04-24T10:11:29.087Z,24.72
2023-04-24T10:14:31.304Z,24.67
2023-04-24T10:17:33.698Z,24.15
2023-04-24T10:20:37.593Z,23.70
2023-04-24T10:23:39.724Z,23.45
2023-04-24T10:26:41.752Z,23.21
2023-04-24T10:29:44.670Z,22.96
2023-04-24T10:32:46.770Z,22.96
2023-04-24T10:35:51.139Z,22.96
2023-04-24T10:38:54.177Z,22.74
2023-04-24T10:41:56.313Z,22.91
2023-04-24T10:44:58.398Z,23.13
2023-04-24T10:48:08.876Z,23.38
2023-04-24T10:51:13.911Z,23.94
2023-04-24T10:54:28.855Z,24.31
2023-04-24T10:57:30.525Z,24.71
2023-04-24T11:00:32.380Z,25.10
2023-04-24T11:03:37.371Z,25.10
2023-04-24T11:06:39.232Z,25.04
2023-04-24T11:09:43.304Z,25.48
2023-04-24T11:12:44.919Z,26.16
2023-04-24T11:16:16.472Z,26.37
2023-04-24T11:19:18.115Z,26.30
2023-04-24T11:22:19.982Z,26.24
2023-04-24T11:25:22.452Z,25.98
2023-04-24T11:28:25.567Z,24.86
2023-04-24T11:31:41.493Z,24.41
2023-04-24T11:34:46.919Z,24.98
2023-04-24T11:38:08.104Z,25.29
2023-04-24T11:41:12.567Z,25.38
2023-04-24T11:44:14.915Z,25.42
2023-04-24T11:47:17.001Z,25.39
2023-04-24T11:50:20.693Z,25.29
2023-04-24T11:53:22.394Z,25.73
2023-04-24T11:56:25.115Z,25.83
2023-04-24T11:59:26.797Z,25.80
2023-04-24T12:02:28.690Z,25.84
2023-04-24T12:05:30.963Z,25.87
2023-04-24T12:08:32.655Z,25.61
2023-04-24T12:11:34.261Z,25.20
2023-04-24T12:14:54.765Z,25.16
2023-04-24T12:17:57.846Z,25.57
2023-04-24T12:21:23.469Z,25.87
2023-04-24T12:24:25.229Z,26.34
2023-04-24T12:27:26.977Z,26.26
2023-04-24T12:30:29.662Z,25.45
2023-04-24T12:33:35.307Z,24.51
2023-04-24T12:36:37.128Z,23.46
2023-04-24T12:39:38.847Z,22.56
2023-04-24T12:42:51.187Z,21.90
2023-04-24T12:45:52.861Z,21.37
2023-04-24T12:48:54.461Z,21.00
2023-04-24T12:51:56.112Z,20.79
2023-04-24T12:54:59.862Z,20.63
2023-04-24T12:58:01.560Z,20.51
2023-04-24T13:01:03.281Z,20.38
2023-04-24T13:04:06.742Z,20.25
2023-04-24T13:07:08.699Z,20.20
2023-04-24T13:10:10.659Z,20.11
2023-04-24T13:13:13.359Z,19.90
2023-04-24T13:16:15.112Z,19.67
2023-04-24T13:19:16.774Z,19.50
2023-04-24T13:22:19.199Z,19.33
2023-04-24T13:25:21.012Z,19.19
2023-04-24T13:28:22.614Z,19.05
2023-04-24T13:31:24.568Z,18.95
2023-04-24T13:34:27.112Z,18.81
2023-04-24T13:37:28.919Z,18.69
2023-04-24T13:40:30.480Z,18.50
2023-04-24T13:43:32.146Z,18.31
2023-04-24T13:46:34.020Z,18.17
2023-04-24T13:49:36.128Z,18.03
2023-04-24T13:52:38.871Z,17.91
2023-04-24T13:55:40.619Z,17.86
2023-04-24T13:58:42.247Z,17.82
2023-04-24T14:01:44.256Z,17.81
2023-04-24T14:04:46.247Z,17.78
2023-04-24T14:07:48.199Z,17.75
2023-04-24T14:10:49.861Z,17.71
2023-04-24T14:13:51.561Z,17.68
2023-04-24T14:20:56.028Z,17.56
2023-04-24T14:23:57.658Z,17.52
2023-04-24T14:26:59.311Z,17.45
2023-04-24T14:30:01.187Z,17.35
2023-04-24T14:33:02.998Z,17.22
2023-04-24T14:36:04.912Z,17.12
2023-04-24T14:39:07.099Z,17.06
2023-04-24T14:42:08.706Z,16.97
2023-04-24T14:45:10.822Z,16.79
2023-04-24T14:48:12.633Z,16.68
2023-04-24T14:51:14.281Z,16.61
2023-04-24T14:54:16.051Z,16.56
2023-04-24T14:57:17.965Z,16.54
2023-04-24T15:00:20.186Z,16.53
2023-04-24T15:03:22.573Z,16.54
2023-04-24T15:06:24.585Z,16.56
2023-04-24T15:09:26.181Z,16.59
2023-04-24T15:12:28.142Z,16.58
2023-04-24T15:15:29.825Z,16.62
2023-04-24T15:18:31.497Z,16.67
2023-04-24T15:21:33.214Z,16.68
2023-04-24T15:24:35.239Z,16.72
2023-04-24T15:27:44.561Z,16.73
2023-04-24T15:30:46.292Z,16.71
2023-04-24T15:33:48.365Z,16.69
2023-04-24T15:36:50.500Z,16.59
2023-04-24T15:39:52.086Z,16.51
2023-04-24T15:42:53.715Z,16.50
2023-04-24T15:45:55.578Z,16.46
2023-04-24T15:48:57.358Z,16.44
2023-04-24T15:51:59.018Z,16.42
2023-04-24T15:55:01.049Z,16.41
2023-04-24T15:58:02.983Z,16.40
2023-04-24T16:01:04.761Z,16.31
2023-04-24T16:04:06.485Z,16.23
2023-04-24T16:07:08.214Z,16.12
2023-04-24T16:10:10.767Z,15.99
2023-04-24T16:13:13.449Z,15.83
2023-04-24T16:16:15.146Z,15.71
2023-04-24T16:19:16.857Z,15.62
2023-04-24T16:22:18.557Z,15.52
2023-04-24T16:25:20.337Z,15.43
2023-04-24T16:28:22.369Z,15.31
2023-04-24T16:31:24.100Z,15.19
2023-04-24T16:34:25.823Z,15.09
2023-04-24T16:37:29.146Z,14.97
2023-04-24T16:40:31.352Z,14.81
2023-04-24T16:43:33.174Z,14.63
2023-04-24T16:46:35.291Z,14.46
2023-04-24T16:49:37.445Z,14.32
2023-04-24T16:52:39.360Z,14.18
2023-04-24T16:55:40.970Z,14.05
2023-04-24T16:58:42.612Z,13.89
2023-04-24T17:01:44.400Z,13.75
2023-04-24T17:04:46.298Z,13.66
2023-04-24T17:07:47.952Z,13.62
2023-04-24T17:10:49.655Z,13.60
2023-04-24T17:13:51.598Z,13.56
2023-04-24T17:16:53.515Z,13.45
2023-04-24T17:19:55.299Z,13.49
2023-04-24T17:22:57.251Z,13.37
2023-04-24T17:25:58.945Z,13.27
2023-04-24T17:29:00.589Z,13.25
2023-04-24T17:32:02.273Z,13.20
2023-04-24T17:35:04.060Z,13.17
2023-04-24T17:38:05.800Z,13.13
2023-04-24T17:41:07.515Z,13.12
2023-04-24T17:44:09.173Z,13.09
2023-04-24T17:47:10.965Z,13.04
2023-04-24T17:50:12.619Z,12.98
2023-04-24T17:53:14.312Z,12.96
2023-04-24T17:56:16.023Z,12.93
2023-04-24T17:59:17.710Z,12.76
2023-04-24T18:02:19.583Z,12.64
2023-04-24T18:05:21.541Z,12.58
2023-04-24T18:08:23.180Z,12.54
2023-04-24T18:11:24.880Z,12.45
2023-04-24T18:14:26.536Z,12.37
2023-04-24T18:17:29.460Z,12.21
2023-04-24T18:20:31.128Z,12.06
2023-04-24T18:23:32.736Z,11.96
2023-04-24T18:26:34.911Z,11.92
2023-04-24T18:29:36.686Z,11.98
2023-04-24T18:32:38.386Z,12.04
2023-04-24T18:35:40.128Z,11.94
2023-04-24T18:38:42.067Z,11.90
2023-04-24T18:41:43.740Z,11.88
2023-04-24T18:44:45.536Z,11.86
2023-04-24T18:47:47.248Z,11.84
2023-04-24T18:50:48.932Z,11.78
2023-04-24T18:53:50.567Z,11.79
2023-04-24T18:56:52.620Z,11.74
2023-04-24T18:59:54.219Z,11.65
2023-04-24T19:02:56.009Z,11.54
2023-04-24T19:05:57.874Z,11.36
2023-04-24T19:08:59.675Z,11.27
2023-04-24T19:12:01.370Z,11.21
2023-04-24T19:15:03.278Z,11.19
2023-04-24T19:18:05.491Z,11.14
2023-04-24T19:21:07.246Z,11.11
2023-04-24T19:24:08.840Z,11.11
2023-04-24T19:27:10.462Z,11.09
2023-04-24T19:30:12.364Z,11.02
2023-04-24T19:33:14.057Z,10.94
2023-04-24T19:36:16.768Z,10.90
2023-04-24T19:39:18.491Z,10.80
2023-04-24T19:42:28.485Z,10.81
2023-04-24T19:45:37.903Z,10.81
2023-04-24T19:48:40.139Z,10.76
2023-04-24T19:51:41.755Z,10.61
2023-04-24T19:54:43.940Z,10.54
2023-04-24T19:57:45.659Z,10.48
2023-04-24T20:00:47.391Z,10.38
2023-04-24T20:03:49.376Z,10.33
2023-04-24T20:06:51.212Z,10.29
2023-04-24T20:09:52.845Z,10.26
2023-04-24T20:12:54.812Z,10.26
2023-04-24T20:15:56.490Z,10.27
2023-04-24T20:18:58.628Z,10.24
2023-04-24T20:22:00.368Z,10.21
2023-04-24T20:25:02.599Z,10.27
2023-04-24T20:28:04.279Z,10.30
2023-04-24T20:31:05.946Z,10.26
2023-04-24T20:34:08.040Z,10.24
2023-04-24T20:37:09.815Z,10.26
2023-04-24T20:41:07.966Z,10.28
2023-04-24T20:44:09.685Z,10.26
2023-04-24T20:47:11.734Z,10.29
2023-04-24T20:50:13.395Z,10.28
2023-04-24T20:53:15.027Z,10.25
2023-04-24T20:56:17.004Z,10.27
2023-04-24T20:59:18.634Z,10.33
2023-04-24T21:02:20.368Z,10.44
2023-04-24T21:05:22.097Z,10.53
2023-04-24T21:08:23.820Z,10.60
2023-04-24T21:11:25.435Z,10.60
2023-04-24T21:14:27.097Z,10.55
2023-04-24T21:17:28.771Z,10.51
2023-04-24T21:20:30.455Z,10.48
2023-04-24T21:23:32.129Z,10.46
2023-04-24T21:26:34.398Z,10.42
2023-04-24T21:29:36.086Z,10.46
2023-04-24T21:32:37.926Z,10.49
2023-04-24T21:35:39.566Z,10.51
2023-04-24T21:38:41.237Z,10.59
2023-04-24T21:41:42.945Z,10.68
2023-04-24T21:44:44.610Z,10.77
2023-04-24T21:47:46.353Z,10.83
2023-04-24T21:50:48.171Z,10.88
2023-04-24T21:53:50.209Z,10.94
2023-04-24T21:56:52.398Z,10.99
2023-04-24T21:59:54.226Z,11.02
2023-04-24T22:02:56.105Z,11.02
2023-04-24T22:05:57.869Z,11.00
2023-04-24T22:08:59.767Z,10.98
2023-04-24T22:12:01.599Z,10.93
2023-04-24T22:15:03.521Z,10.91
2023-04-24T22:18:05.581Z,10.92
2023-04-24T22:21:07.412Z,10.95
2023-04-24T22:24:09.052Z,11.00
2023-04-24T22:27:10.664Z,11.07
2023-04-24T22:30:12.559Z,11.13
2023-04-24T22:33:14.240Z,11.20
2023-04-24T22:36:16.069Z,11.24
2023-04-24T22:39:17.740Z,11.27
2023-04-24T22:42:20.059Z,11.26
2023-04-24T22:45:21.736Z,11.25
2023-04-24T22:48:23.641Z,11.24
2023-04-24T22:51:25.344Z,11.25
2023-04-24T22:54:29.026Z,11.27
2023-04-24T22:57:31.574Z,11.29
2023-04-24T23:00:33.227Z,11.29
2023-04-24T23:03:35.054Z,11.29
2023-04-24T23:06:37.343Z,11.28
2023-04-24T23:09:39.079Z,11.27
2023-04-24T23:12:40.937Z,11.26
2023-04-24T23:15:42.848Z,11.24
2023-04-24T23:18:44.456Z,11.21
2023-04-24T23:21:46.204Z,11.16
2023-04-24T23:24:47.861Z,11.09
2023-04-24T23:27:49.552Z,11.01
2023-04-24T23:30:51.289Z,10.92
2023-04-24T23:33:52.965Z,10.81
2023-04-24T23:36:55.450Z,10.69
2023-04-24T23:39:57.064Z,10.63
2023-04-24T23:43:07.408Z,10.58
2023-04-24T23:46:10.055Z,10.53
2023-04-24T23:49:11.694Z,10.49
2023-04-24T23:52:13.375Z,10.46
2023-04-24T23:55:15.040Z,10.41
2023-04-24T23:58:16.662Z,10.35
